Avon, New Jersey
Current Conditions -  °F | °C
As of 6:55 AM on Monday 24 Nov 2014 (Local Time) from KBLM Reporting Station
Overcast Overcast  
Wind Chill: 61°   Ceiling: 500
Heat Index: 61°   Visibility: 3mi
Dew Point: 55°   Wind: 12mph
Humidity: 82%   Direction: 180°S
Pressure: 29.72"   Gusts: NA
Location:  40.1917°N, 74.0159°W
Report Text: KBLM 241155Z AUTO 18010KT 3SM OVC005 16/13 A2972 RMK AO1 P0006 60037 70037 10160 20140 57020
Loading
Personal Weather Stations






























Interactive Weather Map New forecast layout! Learn more

10-Day Weather Forecast

Advertisements
Track Severe Weather on mobile